Time;durP1;ratioP1;P1;durP2;ratioP2;P2;SDS_P1;SDS_P2;PMS_P1;PMS_P2;Temp;Humidity;BMP_temperature;BMP_pressure;BME280_temperature;BME280_humidity;BME280_pressure;Samples;Min_cycle;Max_cycle;Signal;HPM_P1;HPM_P2
2022/06/10 00:02:31;;;;;;;15.20;3.60;;;;;;;14.12;70.20;99661.47;5216753;28;20071;-71
2022/06/10 00:05:29;;;;;;;7.82;3.72;;;;;;;14.26;69.35;99675.09;5214694;28;20543;-71
2022/06/10 00:08:24;;;;;;;9.75;4.40;;;;;;;14.37;69.30;99679.41;5201613;28;20179;-71
2022/06/10 00:11:15;;;;;;;9.50;4.50;;;;;;;14.35;68.54;99676.03;5206007;28;20049;-70
2022/06/10 00:14:05;;;;;;;9.00;3.80;;;;;;;14.15;69.29;99677.16;5218738;28;20427;-71
2022/06/10 00:16:55;;;;;;;6.10;3.90;;;;;;;14.48;68.34;99678.34;5208262;28;20106;-71
2022/06/10 00:19:45;;;;;;;6.53;3.80;;;;;;;14.19;68.26;99667.88;5204815;28;20059;-71
2022/06/10 00:22:35;;;;;;;7.63;3.75;;;;;;;14.07;68.91;99661.91;5204033;28;20059;-71
2022/06/10 00:25:26;;;;;;;5.57;3.30;;;;;;;13.97;68.10;99661.97;5214650;28;20052;-71
2022/06/10 00:28:17;;;;;;;10.40;3.53;;;;;;;13.72;68.07;99670.66;5218535;28;20060;-71
2022/06/10 00:31:07;;;;;;;9.13;3.95;;;;;;;13.65;69.36;99664.25;5203516;28;20175;-71
2022/06/10 00:33:57;;;;;;;6.57;3.58;;;;;;;13.77;68.57;99668.38;5220348;28;20052;-71
2022/06/10 00:36:48;;;;;;;10.73;3.80;;;;;;;13.75;68.97;99668.53;5204253;28;20667;-71
2022/06/10 00:39:38;;;;;;;8.93;3.70;;;;;;;13.83;68.75;99663.28;5206621;28;20049;-70
2022/06/10 00:42:28;;;;;;;8.90;3.50;;;;;;;13.66;68.67;99671.25;5217494;28;20049;-71
2022/06/10 00:45:50;;;;;;;7.70;3.58;;;;;;;13.93;69.15;99673.91;5205662;28;20048;-70
2022/06/10 00:48:53;;;;;;;11.38;4.03;;;;;;;13.93;69.60;99679.25;5210505;28;20146;-70
2022/06/10 00:51:48;;;;;;;9.77;3.60;;;;;;;13.88;69.91;99675.38;5214450;28;20051;-71
2022/06/10 00:54:43;;;;;;;9.75;3.22;;;;;;;13.78;68.91;99662.91;5201565;28;20055;-71
2022/06/10 00:57:38;;;;;;;10.73;4.93;;;;;;;13.90;68.40;99674.19;5198140;28;20048;-71
2022/06/10 01:00:29;;;;;;;7.68;3.45;;;;;;;13.81;68.08;99678.63;5213141;28;20459;-70
2022/06/10 01:03:19;;;;;;;5.40;3.13;;;;;;;13.56;67.74;99673.94;5216240;28;20049;-71
2022/06/10 01:06:09;;;;;;;6.63;2.97;;;;;;;13.37;68.47;99662.38;5213680;28;20342;-71
2022/06/10 01:09:02;;;;;;;3.50;3.13;;;;;;;13.40;67.78;99678.06;5221295;28;20056;-71
2022/06/10 01:11:58;;;;;;;6.70;3.30;;;;;;;13.21;67.19;99671.91;5211928;28;20133;-70
2022/06/10 01:15:13;;;;;;;7.10;3.15;;;;;;;13.05;68.85;99672.53;5219024;28;20048;-70
2022/06/10 01:18:15;;;;;;;8.40;2.55;;;;;;;13.06;69.15;99680.38;5204042;28;20071;-71
2022/06/10 01:21:53;;;;;;;4.50;2.47;;;;;;;13.11;68.17;99682.59;5216042;28;20098;-70
2022/06/10 01:24:54;;;;;;;12.40;3.40;;;;;;;13.46;68.49;99684.63;5186231;28;20098;-71
2022/06/10 01:27:57;;;;;;;9.02;3.70;;;;;;;13.46;68.34;99692.63;5219249;28;20048;-70
2022/06/10 01:31:15;;;;;;;9.98;3.10;;;;;;;13.05;69.05;99688.50;5190591;28;20666;-70
2022/06/10 01:34:29;;;;;;;6.32;3.30;;;;;;;12.94;69.02;99676.16;5216416;28;20041;-70
2022/06/10 01:37:26;;;;;;;11.20;3.28;;;;;;;13.05;68.62;99673.38;5217154;28;20064;-71
2022/06/10 01:40:26;;;;;;;7.28;3.50;;;;;;;13.06;68.84;99684.84;5224560;28;20131;-71
2022/06/10 01:43:24;;;;;;;14.40;3.97;;;;;;;13.01;68.97;99676.44;5223140;28;20194;-71
2022/06/10 01:46:25;;;;;;;5.05;3.63;;;;;;;13.24;68.57;99691.13;5220342;28;20061;-71
2022/06/10 01:49:29;;;;;;;5.85;3.40;;;;;;;13.07;68.42;99692.69;5220015;28;20048;-71
2022/06/10 01:52:44;;;;;;;9.80;3.47;;;;;;;12.92;69.20;99696.78;5220617;28;20052;-71
2022/06/10 01:55:54;;;;;;;;;;;;;;;13.00;69.24;99704.06;5219064;22;20130;-83
2022/06/10 01:58:54;;;;;;;7.68;3.55;;;;;;;12.69;68.66;99685.59;5212952;28;20520;-83
2022/06/10 02:01:52;;;;;;;6.85;3.72;;;;;;;12.62;68.76;99682.66;5197005;28;20056;-84
2022/06/10 02:04:51;;;;;;;5.80;3.35;;;;;;;12.83;68.67;99693.13;5210976;28;20098;-83
2022/06/10 02:07:47;;;;;;;9.25;3.88;;;;;;;12.76;69.10;99688.53;5207547;28;20049;-83
2022/06/10 02:11:01;;;;;;;8.50;3.88;;;;;;;12.66;70.10;99696.50;5212563;22;20127;-73
2022/06/10 02:14:03;;;;;;;6.60;4.10;;;;;;;12.58;70.38;99699.00;5202737;28;20093;-73
2022/06/10 02:16:56;;;;;;;8.35;3.75;;;;;;;12.49;69.24;99692.72;5225133;28;20490;-72
2022/06/10 02:19:53;;;;;;;6.00;4.00;;;;;;;12.58;70.15;99704.34;5216482;28;20048;-72
2022/06/10 02:22:45;;;;;;;9.45;3.92;;;;;;;12.44;69.62;99689.63;5216303;28;20529;-71
2022/06/10 02:25:42;;;;;;;11.85;3.92;;;;;;;12.59;69.54;99714.00;5213851;28;20053;-72
2022/06/10 02:28:39;;;;;;;10.10;3.38;;;;;;;12.58;69.09;99721.16;5218203;28;20041;-71
2022/06/10 02:31:35;;;;;;;7.30;4.13;;;;;;;12.59;69.65;99724.66;5206885;28;20052;-71
2022/06/10 02:34:29;;;;;;;8.32;4.45;;;;;;;12.69;69.96;99726.34;5215185;28;20128;-72
2022/06/10 02:37:51;;;;;;;8.25;4.03;;;;;;;12.57;70.11;99727.44;5215055;28;20056;-71
2022/06/10 02:41:00;;;;;;;7.50;4.03;;;;;;;12.49;69.62;99735.28;5223258;28;20044;-72
2022/06/10 02:44:11;;;;;;;6.15;3.92;;;;;;;12.41;70.83;99732.47;5222975;28;20584;-72
2022/06/10 02:47:40;;;;;;;9.23;4.10;;;;;;;12.41;69.60;99735.13;5224011;28;20434;-72
2022/06/10 02:50:31;;;;;;;5.47;3.60;;;;;;;12.43;70.02;99727.84;5221006;28;20075;-73
2022/06/10 02:53:21;;;;;;;11.93;5.15;;;;;;;12.61;69.14;99731.50;5222379;28;20060;-74
2022/06/10 02:56:22;;;;;;;10.75;4.03;;;;;;;12.41;69.92;99743.94;5222679;28;20133;-73
2022/06/10 03:02:45;;;;;;;9.63;3.80;;;;;;;12.52;69.82;99744.81;5218900;28;20060;-72
2022/06/10 03:05:48;;;;;;;7.30;4.30;;;;;;;12.52;70.09;99748.31;5224343;28;20110;-72
2022/06/10 03:08:44;;;;;;;7.70;3.92;;;;;;;12.72;69.53;99757.16;5224879;28;20799;-73
2022/06/10 03:11:41;;;;;;;8.90;4.57;;;;;;;12.81;69.64;99750.97;5220395;28;20056;-71
2022/06/10 03:14:46;;;;;;;8.98;4.45;;;;;;;12.77;69.65;99756.72;5223443;28;20151;-71
2022/06/10 03:17:55;;;;;;;9.88;4.13;;;;;;;12.48;69.60;99748.72;5211303;28;20098;-71
2022/06/10 03:21:01;;;;;;;8.80;4.38;;;;;;;12.23;70.12;99757.06;5224672;28;20197;-71
2022/06/10 03:24:00;;;;;;;6.40;3.97;;;;;;;12.38;69.57;99772.63;5223713;28;20526;-72
2022/06/10 03:27:09;;;;;;;7.43;4.20;;;;;;;12.40;69.48;99774.19;5223909;28;20174;-72
2022/06/10 03:30:06;;;;;;;7.97;4.00;;;;;;;12.25;69.99;99756.06;5224863;28;20068;-73
2022/06/10 03:33:41;;;;;;;6.10;3.90;;;;;;;12.19;69.63;99770.78;5219916;28;20099;-71
2022/06/10 03:36:32;;;;;;;8.25;4.55;;;;;;;12.18;70.41;99771.72;5138360;28;20066;-74
2022/06/10 03:39:24;;;;;;;11.68;4.68;;;;;;;12.22;70.61;99778.47;5222237;28;20080;-72
2022/06/10 03:42:17;;;;;;;10.02;4.47;;;;;;;12.27;70.92;99778.06;5219235;28;20578;-71
2022/06/10 03:45:15;;;;;;;13.30;5.55;;;;;;;12.52;70.41;99782.06;5216600;28;20129;-73
2022/06/10 03:48:06;;;;;;;16.75;6.50;;;;;;;12.60;70.89;99780.38;5220815;28;20186;-72
2022/06/10 03:50:58;;;;;;;11.63;5.70;;;;;;;12.42;70.81;99787.34;5213609;28;20110;-74
2022/06/10 03:53:49;;;;;;;9.13;5.35;;;;;;;12.44;70.71;99785.38;5222608;28;20056;-71
2022/06/10 03:56:39;;;;;;;13.52;5.68;;;;;;;12.56;71.17;99786.13;5219823;28;20119;-71
2022/06/10 03:59:29;;;;;;;12.90;6.13;;;;;;;12.65;71.38;99783.47;5219078;28;20043;-71
2022/06/10 04:02:19;;;;;;;12.02;7.13;;;;;;;12.75;71.20;99795.94;5226002;28;20079;-71
2022/06/10 04:05:12;;;;;;;14.27;6.60;;;;;;;12.78;71.42;99796.53;5208748;28;20611;-71
2022/06/10 04:08:02;;;;;;;16.33;6.57;;;;;;;12.84;71.41;99798.59;5223642;28;20048;-71
2022/06/10 04:10:53;;;;;;;10.60;6.53;;;;;;;12.78;71.52;99798.31;5223563;28;20051;-72
2022/06/10 04:13:44;;;;;;;9.48;6.60;;;;;;;12.77;70.98;99807.28;5220231;28;20059;-73
2022/06/10 04:16:34;;;;;;;10.68;6.43;;;;;;;12.94;70.91;99811.91;5222242;28;20102;-73
2022/06/10 04:19:24;;;;;;;15.55;6.20;;;;;;;12.83;70.03;99809.41;5222003;28;20045;-72
2022/06/10 04:22:14;;;;;;;12.95;6.03;;;;;;;12.64;69.80;99792.41;5206431;28;20046;-72
2022/06/10 04:25:05;;;;;;;12.48;5.95;;;;;;;12.73;70.26;99811.22;5223483;28;20107;-72
2022/06/10 04:27:55;;;;;;;12.48;6.38;;;;;;;12.96;70.75;99822.44;5202906;28;20182;-72
2022/06/10 04:30:48;;;;;;;11.88;6.82;;;;;;;13.33;69.77;99814.63;5221746;28;20111;-71
2022/06/10 04:33:38;;;;;;;12.38;6.38;;;;;;;13.14;70.68;99812.78;5224084;28;20059;-72
2022/06/10 04:36:29;;;;;;;18.65;7.45;;;;;;;13.27;70.87;99817.84;5203872;28;20063;-72
2022/06/10 04:39:19;;;;;;;11.75;6.85;;;;;;;13.32;70.97;99813.78;5214815;28;20134;-73
2022/06/10 04:42:10;;;;;;;17.25;7.18;;;;;;;13.48;70.58;99817.72;5219270;28;20044;-72
2022/06/10 04:45:00;;;;;;;12.35;6.03;;;;;;;13.35;70.24;99818.84;5202010;28;20068;-72
2022/06/10 04:47:54;;;;;;;17.00;7.88;;;;;;;13.49;70.13;99828.22;5220277;28;20060;-71
2022/06/10 04:50:47;;;;;;;11.38;7.13;;;;;;;13.35;72.01;99828.66;5218895;28;20124;-72
2022/06/10 04:53:38;;;;;;;13.10;7.78;;;;;;;13.69;70.71;99830.84;5222991;28;20088;-72
2022/06/10 04:56:30;;;;;;;11.50;6.25;;;;;;;13.71;70.29;99834.19;5206813;28;20052;-73
2022/06/10 04:59:20;;;;;;;14.93;6.88;;;;;;;13.93;70.00;99833.88;5219481;28;20056;-74
2022/06/10 05:02:10;;;;;;;9.90;6.22;;;;;;;13.88;69.53;99833.47;5225667;28;20145;-72
2022/06/10 05:05:01;;;;;;;12.07;6.32;;;;;;;13.90;70.26;99834.16;5229249;28;21876;-72
2022/06/10 05:07:51;;;;;;;11.43;6.20;;;;;;;14.13;69.18;99839.16;5215048;28;20053;-72
2022/06/10 05:10:41;;;;;;;13.48;6.22;;;;;;;14.30;69.05;99844.56;5206001;28;20057;-71
2022/06/10 05:13:31;;;;;;;12.50;5.65;;;;;;;14.28;68.72;99819.84;5222823;28;20064;-72
2022/06/10 05:16:22;;;;;;;10.60;5.60;;;;;;;14.47;68.04;99842.06;5219953;28;20577;-73
2022/06/10 05:19:13;;;;;;;12.85;5.45;;;;;;;14.72;67.31;99836.09;5199503;28;20167;-73
2022/06/10 05:22:03;;;;;;;11.70;5.82;;;;;;;14.56;68.02;99839.41;5213442;28;20063;-72
2022/06/10 05:24:53;;;;;;;13.65;6.30;;;;;;;14.64;68.34;99844.00;5226588;28;20548;-73
2022/06/10 05:27:45;;;;;;;10.73;5.30;;;;;;;14.79;66.97;99847.00;5222690;28;20190;-72
2022/06/10 05:30:35;;;;;;;10.50;5.68;;;;;;;14.80;66.49;99852.22;5223022;28;20423;-73
2022/06/10 05:34:44;;;;;;;8.52;5.30;;;;;;;15.02;65.99;99852.75;5226149;28;20724;-72
2022/06/10 05:36:37;;;;;;;9.68;5.00;;;;;;;14.92;67.02;99858.16;5223256;28;20083;-72
2022/06/10 05:39:26;;;;;;;14.90;7.72;;;;;;;15.16;66.49;99860.22;5226151;28;20150;-73
2022/06/10 05:42:17;;;;;;;14.98;6.10;;;;;;;15.20;66.38;99861.63;5218891;28;20647;-73
2022/06/10 05:45:08;;;;;;;8.23;5.38;;;;;;;15.24;66.20;99856.81;5221026;28;20744;-72
2022/06/10 05:48:01;;;;;;;9.93;5.07;;;;;;;15.26;66.32;99860.16;5222036;28;20766;-73
2022/06/10 05:50:51;;;;;;;14.60;4.97;;;;;;;15.36;66.85;99860.09;5224718;28;20472;-73
2022/06/10 05:53:41;;;;;;;8.70;4.78;;;;;;;15.50;65.90;99868.41;5221460;28;20045;-73
2022/06/10 05:56:31;;;;;;;6.18;4.90;;;;;;;15.45;66.25;99865.34;5223814;28;20655;-72
2022/06/10 05:59:22;;;;;;;12.27;4.45;;;;;;;15.57;65.86;99873.97;5219418;28;20199;-73
2022/06/10 06:02:14;;;;;;;16.38;5.25;;;;;;;15.61;66.74;99870.00;5208081;28;20663;-72
2022/06/10 06:05:04;;;;;;;11.40;5.25;;;;;;;15.73;65.54;99874.16;5226707;28;20758;-72
2022/06/10 06:07:55;;;;;;;9.02;5.18;;;;;;;15.86;65.80;99873.75;5205145;28;20534;-74
2022/06/10 06:10:45;;;;;;;17.02;5.22;;;;;;;16.09;64.61;99868.72;5209269;28;20416;-72
2022/06/10 06:13:36;;;;;;;10.77;4.90;;;;;;;16.22;64.25;99876.28;5218665;28;20420;-72
2022/06/10 06:16:26;;;;;;;15.00;4.90;;;;;;;16.44;63.65;99878.41;5225578;28;20502;-71
2022/06/10 06:19:16;;;;;;;8.27;4.80;;;;;;;16.31;63.72;99861.97;5226528;28;20178;-71
2022/06/10 06:22:07;;;;;;;15.90;5.40;;;;;;;16.48;65.53;99875.44;5225821;28;20497;-73
2022/06/10 06:24:59;;;;;;;12.60;5.50;;;;;;;16.62;64.08;99882.84;5204135;28;20076;-73
2022/06/10 06:27:50;;;;;;;15.63;4.78;;;;;;;16.59;63.75;99889.38;5212830;28;20106;-76
2022/06/10 06:30:40;;;;;;;11.20;4.30;;;;;;;16.83;62.99;99883.31;5211495;28;20056;-72
2022/06/10 06:33:30;;;;;;;11.75;4.28;;;;;;;16.68;63.22;99887.56;5227270;28;20499;-74
2022/06/10 06:36:24;;;;;;;13.15;4.22;;;;;;;16.77;61.91;99864.38;5220317;28;20061;-71
2022/06/10 06:39:17;;;;;;;16.50;4.20;;;;;;;17.06;62.00;99877.34;5211883;28;20514;-71
2022/06/10 06:42:12;;;;;;;11.52;4.20;;;;;;;17.04;62.69;99879.34;5215729;28;20060;-70
2022/06/10 06:45:10;;;;;;;15.25;4.63;;;;;;;17.40;59.82;99873.72;5217069;28;20055;-71
2022/06/10 06:48:12;;;;;;;10.38;3.60;;;;;;;17.55;60.24;99880.94;5223931;28;20083;-70
2022/06/10 06:51:02;;;;;;;8.63;3.83;;;;;;;17.91;58.72;99879.75;5211447;28;20720;-71
2022/06/10 06:53:52;;;;;;;4.93;3.20;;;;;;;18.81;55.66;99887.56;5222506;28;20067;-75
2022/06/10 06:56:43;;;;;;;11.93;3.72;;;;;;;20.01;53.09;99878.03;5207696;28;20052;-72
2022/06/10 06:59:33;;;;;;;12.85;3.80;;;;;;;20.60;51.96;99869.16;5220466;28;20037;-71
2022/06/10 07:02:23;;;;;;;11.60;3.78;;;;;;;20.87;49.75;99873.03;5214279;28;20049;-73
2022/06/10 07:05:14;;;;;;;7.50;2.75;;;;;;;21.76;48.30;99870.00;5222641;28;20617;-72
2022/06/10 07:08:05;;;;;;;13.15;2.85;;;;;;;21.97;46.37;99885.31;5209832;28;20522;-73
2022/06/10 07:10:55;;;;;;;6.43;2.50;;;;;;;21.69;47.81;99869.09;5197400;28;20617;-73
2022/06/10 07:13:46;;;;;;;6.45;2.30;;;;;;;21.32;49.22;99866.47;5208107;28;20059;-74
2022/06/10 07:16:37;;;;;;;11.32;2.58;;;;;;;23.03;45.26;99890.56;5215154;28;20522;-74
2022/06/10 07:19:27;;;;;;;11.05;2.83;;;;;;;21.03;47.74;99871.97;5211107;28;20040;-73
2022/06/10 07:22:17;;;;;;;10.27;2.53;;;;;;;22.34;48.21;99881.47;5199770;28;20056;-74
2022/06/10 07:25:08;;;;;;;15.50;2.95;;;;;;;22.93;46.35;99886.34;5200929;28;20179;-74
2022/06/10 07:27:59;;;;;;;6.93;2.03;;;;;;;22.73;46.33;99871.91;5212341;28;20071;-75
2022/06/10 07:30:49;;;;;;;8.07;2.60;;;;;;;23.62;44.09;99879.03;5214152;28;20667;-76
2022/06/10 07:33:40;;;;;;;6.30;2.40;;;;;;;23.05;44.77;99873.09;5200798;28;20061;-73
2022/06/10 07:36:30;;;;;;;11.57;2.65;;;;;;;23.54;44.51;99869.25;5211531;28;20046;-75
2022/06/10 07:39:20;;;;;;;10.20;2.65;;;;;;;24.02;44.83;99879.88;5202687;28;20059;-69
2022/06/10 07:42:10;;;;;;;8.05;2.58;;;;;;;25.17;43.74;99869.34;5207617;28;20072;-72
2022/06/10 07:45:02;;;;;;;6.38;2.45;;;;;;;24.90;42.20;99870.50;5215826;28;20511;-73
2022/06/10 07:47:52;;;;;;;7.72;2.60;;;;;;;23.26;44.37;99866.69;5188442;28;20107;-73
2022/06/10 07:50:44;;;;;;;12.55;2.50;;;;;;;24.96;41.99;99865.03;5213895;28;20897;-74
2022/06/10 07:53:35;;;;;;;7.03;2.30;;;;;;;24.64;42.29;99871.47;5206971;28;20560;-74
2022/06/10 07:56:25;;;;;;;7.95;2.28;;;;;;;25.21;41.31;99870.56;5202948;28;20057;-74
2022/06/10 07:59:15;;;;;;;8.98;2.33;;;;;;;25.56;41.96;99861.97;5219589;28;20048;-73
2022/06/10 08:02:06;;;;;;;8.02;2.17;;;;;;;23.61;44.80;99867.38;5212573;28;20056;-73
2022/06/10 08:04:56;;;;;;;6.75;2.00;;;;;;;24.50;42.10;99865.22;5216778;28;20121;-74
2022/06/10 08:07:48;;;;;;;8.60;2.33;;;;;;;25.22;43.80;99853.22;5209833;28;20052;-73
2022/06/10 08:10:39;;;;;;;6.78;2.25;;;;;;;24.08;42.30;99848.41;5203655;28;20049;-71
2022/06/10 08:13:29;;;;;;;8.60;2.40;;;;;;;25.48;40.47;99854.13;5209170;28;20123;-72
2022/06/10 08:16:20;;;;;;;5.90;2.55;;;;;;;26.53;40.00;99856.94;5215934;28;20079;-74
2022/06/10 08:19:10;;;;;;;9.90;2.47;;;;;;;27.23;38.81;99848.31;5218253;28;20056;-74
2022/06/10 08:25:11;;;;;;;8.35;1.95;;;;;;;26.15;39.93;99859.84;5215744;28;20099;-72
2022/06/10 08:28:02;;;;;;;5.90;1.70;;;;;;;25.67;42.93;99863.16;5209767;28;20060;-73
2022/06/10 08:30:53;;;;;;;8.70;1.63;;;;;;;26.86;36.81;99855.72;5201198;28;20558;-73
2022/06/10 08:33:43;;;;;;;7.20;1.83;;;;;;;25.97;39.42;99863.34;5213312;28;20052;-74
2022/06/10 08:36:33;;;;;;;7.65;1.80;;;;;;;26.94;39.54;99860.81;5191270;28;20757;-73
2022/06/10 08:39:23;;;;;;;6.10;2.00;;;;;;;26.33;40.11;99856.31;5216827;28;20414;-74
2022/06/10 08:42:39;;;;;;;9.45;1.80;;;;;;;26.55;38.09;99856.72;5216481;28;20795;-73
2022/06/10 08:45:50;;;;;;;4.97;1.98;;;;;;;26.09;38.20;99855.28;5201032;28;20549;-72
2022/06/10 08:49:13;;;;;;;13.68;2.90;;;;;;;25.51;36.98;99859.94;5208442;28;20557;-73
2022/06/10 08:52:41;;;;;;;8.40;2.03;;;;;;;27.26;38.61;99863.38;5210395;28;20056;-73
2022/06/10 08:55:52;;;;;;;7.18;2.00;;;;;;;26.50;36.16;99860.13;5211198;28;20073;-73
2022/06/10 08:59:06;;;;;;;7.25;2.00;;;;;;;27.29;36.06;99857.47;5213228;28;20052;-73
2022/06/10 09:02:15;;;;;;;7.40;1.90;;;;;;;27.87;35.43;99854.84;5197985;28;20531;-74
2022/06/10 09:05:24;;;;;;;8.10;1.70;;;;;;;28.18;37.07;99855.59;5215845;28;20048;-74
2022/06/10 09:08:22;;;;;;;9.90;2.50;;;;;;;27.57;36.40;99835.84;5200039;28;20053;-74
2022/06/10 09:11:29;;;;;;;5.32;1.88;;;;;;;28.17;36.81;99853.91;5209749;28;20127;-74
2022/06/10 09:14:26;;;;;;;8.60;2.17;;;;;;;28.08;36.02;99849.91;5215589;28;20190;-74
2022/06/10 09:17:33;;;;;;;7.22;2.38;;;;;;;28.36;35.92;99840.97;5224825;28;20057;-73
2022/06/10 09:20:31;;;;;;;7.18;1.83;;;;;;;28.68;35.32;99856.94;5220118;28;20191;-74
2022/06/10 09:23:34;;;;;;;9.43;2.20;;;;;;;28.36;34.31;99862.78;5213898;28;20130;-73
2022/06/10 09:26:39;;;;;;;9.23;1.92;;;;;;;28.01;33.50;99841.84;5199877;28;20434;-73
2022/06/10 09:29:29;;;;;;;7.22;1.95;;;;;;;27.19;33.85;99846.31;5217600;28;20130;-74
2022/06/10 09:32:38;;;;;;;9.15;1.80;;;;;;;26.73;34.72;99850.44;5211114;28;20068;-74
2022/06/10 09:35:57;;;;;;;6.72;1.70;;;;;;;28.05;34.13;99828.56;5198979;28;20045;-74
2022/06/10 09:42:35;;;;;;;10.07;2.20;;;;;;;28.73;35.97;99843.41;5225950;28;20206;-74
2022/06/10 09:45:37;;;;;;;7.22;1.67;;;;;;;28.64;33.37;99833.91;5221181;28;20419;-74
2022/06/10 09:48:51;;;;;;;6.53;1.83;;;;;;;27.57;33.93;99851.34;5213413;28;20111;-74
2022/06/10 09:52:08;;;;;;;4.13;1.45;;;;;;;26.75;34.36;99853.75;5214945;28;20190;-73
2022/06/10 09:55:19;;;;;;;6.57;1.58;;;;;;;26.68;34.10;99849.22;5201226;28;20056;-73
2022/06/10 09:58:51;;;;;;;10.82;1.67;;;;;;;26.74;33.17;99844.75;5213293;28;20048;-73
2022/06/10 10:01:58;;;;;;;6.80;1.52;;;;;;;28.16;33.86;99846.78;5212798;28;20048;-73
2022/06/10 10:05:01;;;;;;;8.55;1.83;;;;;;;27.66;33.43;99835.50;5215592;28;20841;-73
2022/06/10 10:07:57;;;;;;;5.75;1.58;;;;;;;26.48;33.35;99832.31;5208487;28;20056;-74
2022/06/10 10:11:06;;;;;;;8.63;1.75;;;;;;;27.74;32.74;99826.97;5219869;28;20059;-73
2022/06/10 10:14:06;;;;;;;9.02;1.45;;;;;;;27.45;32.67;99829.56;5198670;28;20045;-72
2022/06/10 10:17:15;;;;;;;4.45;1.40;;;;;;;28.06;32.52;99828.31;5216068;28;20060;-72
2022/06/10 10:20:38;;;;;;;8.02;1.77;;;;;;;26.68;32.58;99818.47;5213110;28;20547;-72
2022/06/10 10:23:35;;;;;;;7.55;1.75;;;;;;;26.59;34.14;99817.13;5205740;28;20634;-73
2022/06/10 10:26:39;;;;;;;6.72;2.00;;;;;;;27.64;34.60;99822.94;5196607;28;20101;-74
2022/06/10 10:29:39;;;;;;;4.07;1.57;;;;;;;27.97;35.90;99816.09;5203182;28;20049;-72
2022/06/10 10:32:36;;;;;;;6.30;1.95;;;;;;;27.84;31.43;99805.44;5202895;28;20064;-72
2022/06/10 10:35:40;;;;;;;6.35;1.13;;;;;;;28.03;35.99;99817.88;5215140;28;20496;-74
2022/06/10 10:38:45;;;;;;;7.68;1.50;;;;;;;28.27;32.56;99813.22;5210379;28;20165;-72
2022/06/10 10:41:45;;;;;;;4.90;1.65;;;;;;;28.88;33.89;99810.94;5202233;28;20056;-74
2022/06/10 10:44:41;;;;;;;5.38;1.65;;;;;;;28.33;32.70;99815.00;5208463;28;20537;-77
2022/06/10 10:47:34;;;;;;;8.55;1.70;;;;;;;28.34;34.19;99810.34;5216765;28;20194;-73
2022/06/10 10:50:30;;;;;;;5.20;1.45;;;;;;;28.66;34.07;99804.50;5215898;28;20052;-73
2022/06/10 10:53:36;;;;;;;5.82;1.55;;;;;;;28.54;33.72;99816.28;5214179;28;20048;-73
2022/06/10 10:56:34;;;;;;;8.60;2.00;;;;;;;28.03;31.30;99809.69;5216813;28;20051;-71
2022/06/10 10:59:35;;;;;;;6.20;1.63;;;;;;;28.65;32.73;99811.03;5203108;28;20061;-73
2022/06/10 11:02:30;;;;;;;9.45;2.10;;;;;;;28.67;33.50;99808.88;5178217;28;21742;-72
2022/06/10 11:05:32;;;;;;;7.65;1.90;;;;;;;28.50;33.41;99811.53;5192399;28;20049;-76
2022/06/10 11:08:26;;;;;;;6.13;2.00;;;;;;;28.06;34.37;99809.22;5203766;28;20052;-72
2022/06/10 11:11:24;;;;;;;3.85;1.52;;;;;;;27.50;36.03;99804.31;5218891;28;20670;-75
2022/06/10 11:14:29;;;;;;;4.88;1.65;;;;;;;28.22;32.23;99812.31;5219021;28;20060;-73
2022/06/10 11:17:27;;;;;;;5.90;1.65;;;;;;;27.75;33.41;99779.56;5201428;28;20045;-74
2022/06/10 11:20:21;;;;;;;6.63;2.10;;;;;;;28.09;33.78;99797.03;5215507;28;20637;-76
2022/06/10 11:23:21;;;;;;;8.73;2.10;;;;;;;27.75;33.17;99799.50;5215716;28;20060;-77
2022/06/10 11:26:25;;;;;;;6.55;1.40;;;;;;;27.87;37.50;99794.88;5220092;28;20142;-73
2022/06/10 11:29:16;;;;;;;6.32;1.50;;;;;;;28.11;33.22;99797.59;5214047;28;20051;-71
2022/06/10 11:32:06;;;;;;;7.63;1.70;;;;;;;27.37;32.79;99789.84;5204478;28;20052;-74
2022/06/10 11:35:00;;;;;;;7.03;1.92;;;;;;;27.62;31.97;99788.84;5195810;28;20442;-74
2022/06/10 11:37:57;;;;;;;5.35;1.75;;;;;;;27.46;31.65;99787.63;5222303;28;20073;-73
2022/06/10 11:40:47;;;;;;;5.47;1.30;;;;;;;26.84;33.36;99785.19;5222795;28;20041;-74
2022/06/10 11:43:44;;;;;;;7.07;1.42;;;;;;;27.09;31.69;99793.22;5223651;28;20080;-76
2022/06/10 11:46:48;;;;;;;3.78;1.50;;;;;;;26.79;33.45;99781.47;5215562;28;20060;-73
2022/06/10 11:49:50;;;;;;;7.65;1.25;;;;;;;26.12;31.95;99778.75;5204201;28;20053;-73
2022/06/10 11:52:50;;;;;;;6.90;1.45;;;;;;;26.65;33.34;99778.94;5194423;28;20713;-73
2022/06/10 11:55:43;;;;;;;7.85;1.60;;;;;;;27.06;33.75;99769.16;5199515;28;20507;-74
2022/06/10 12:01:47;;;;;;;4.85;1.55;;;;;;;26.77;34.65;99767.31;5204783;28;20458;-77
2022/06/10 12:04:44;;;;;;;6.25;1.40;;;;;;;26.33;31.93;99772.03;5212044;28;20144;-74
2022/06/10 12:07:41;;;;;;;9.57;2.15;;;;;;;25.99;32.42;99764.25;5213868;28;20068;-74
2022/06/10 12:10:42;;;;;;;8.05;1.70;;;;;;;26.51;34.33;99741.28;5211966;28;20132;-73
2022/06/10 12:13:39;;;;;;;4.05;1.58;;;;;;;26.10;34.15;99759.97;5207461;28;20063;-74
2022/06/10 12:16:30;;;;;;;5.40;1.80;;;;;;;25.84;36.07;99754.81;5221097;28;20055;-75
2022/06/10 12:19:26;;;;;;;4.80;1.40;;;;;;;25.74;36.73;99752.56;5198113;28;20060;-75
2022/06/10 12:22:17;;;;;;;7.15;1.55;;;;;;;25.74;34.03;99753.41;5219808;28;20071;-73
2022/06/10 12:25:29;;;;;;;9.00;1.77;;;;;;;25.48;34.33;99729.22;5196993;28;20068;-73
2022/06/10 12:28:42;;;;;;;8.25;1.80;;;;;;;25.18;36.89;99745.34;5214971;28;20174;-74
2022/06/10 12:31:42;;;;;;;7.72;1.52;;;;;;;26.04;35.09;99741.84;5209279;28;20713;-74
2022/06/10 12:34:51;;;;;;;7.32;1.55;;;;;;;26.28;34.30;99737.34;5215940;28;20061;-74
2022/06/10 12:37:50;;;;;;;7.40;1.55;;;;;;;26.12;35.86;99737.97;5211945;28;20459;-74
2022/06/10 12:40:58;;;;;;;4.40;1.90;;;;;;;26.23;34.56;99731.78;5198881;28;20087;-74
2022/06/10 12:44:03;;;;;;;7.00;1.85;;;;;;;25.89;35.69;99719.63;5217816;28;20052;-73
2022/06/10 12:46:59;;;;;;;4.38;1.52;;;;;;;26.46;35.02;99731.06;5186530;28;20136;-75
2022/06/10 12:49:58;;;;;;;9.27;1.70;;;;;;;26.32;34.84;99726.84;5210712;28;20072;-74
2022/06/10 12:52:56;;;;;;;5.03;1.45;;;;;;;26.59;32.72;99728.22;5209878;28;20059;-74
2022/06/10 12:55:55;;;;;;;6.22;1.48;;;;;;;26.27;33.83;99732.16;5218872;28;20048;-74
2022/06/10 12:59:06;;;;;;;4.13;1.10;;;;;;;25.96;34.33;99728.53;5217342;28;20049;-73
2022/06/10 13:01:57;;;;;;;6.63;1.48;;;;;;;26.26;34.77;99725.91;5216208;28;20052;-75
2022/06/10 13:04:57;;;;;;;7.20;1.73;;;;;;;26.29;32.73;99720.00;5219316;28;20138;-74
2022/06/10 13:07:49;;;;;;;8.50;1.63;;;;;;;25.73;35.16;99724.59;5210065;28;20053;-74
2022/06/10 13:10:55;;;;;;;6.50;1.40;;;;;;;26.07;37.11;99719.63;5215225;28;20052;-73
2022/06/10 13:13:46;;;;;;;5.15;1.70;;;;;;;25.95;34.42;99721.44;5215245;28;20053;-73
2022/06/10 13:16:47;;;;;;;6.82;2.05;;;;;;;26.47;35.27;99705.53;5220614;28;20053;-73
2022/06/10 13:20:02;;;;;;;6.00;1.77;;;;;;;26.41;36.99;99706.44;5201319;28;20048;-73
2022/06/10 13:23:06;;;;;;;;;;;;;;;26.52;35.51;99700.25;5195111;28;20518;-77
2022/06/10 13:26:03;;;;;;;8.02;1.55;;;;;;;26.52;34.58;99707.59;5209519;28;20449;-72
2022/06/10 13:29:04;;;;;;;6.30;1.45;;;;;;;26.76;33.68;99700.34;5221275;28;20423;-72
2022/06/10 13:31:57;;;;;;;5.32;1.75;;;;;;;26.38;33.45;99694.13;5203959;28;20094;-71
2022/06/10 13:35:03;;;;;;;8.93;1.73;;;;;;;26.37;34.81;99695.22;5217776;28;20127;-72
2022/06/10 13:38:07;;;;;;;5.88;1.48;;;;;;;25.85;34.05;99700.25;5198695;28;20210;-72
2022/06/10 13:44:30;;;;;;;9.00;1.75;;;;;;;25.77;34.35;99692.38;5219626;28;20194;-73
2022/06/10 13:47:33;;;;;;;10.57;1.75;;;;;;;26.00;34.99;99689.81;5203907;28;20057;-72
2022/06/10 13:53:34;;;;;;;7.68;1.73;;;;;;;26.46;32.75;99687.56;5204106;28;20434;-71
2022/06/10 13:56:28;;;;;;;4.68;1.73;;;;;;;26.05;34.09;99686.41;5219037;28;20060;-72
2022/06/10 13:59:23;;;;;;;;;;;;;;;25.63;34.44;99686.25;5204677;28;20101;-72
2022/06/10 14:02:16;;;;;;;9.18;1.63;;;;;;;25.85;33.74;99650.50;5216379;28;19974;-73
2022/06/10 14:05:07;;;;;;;6.00;1.85;;;;;;;25.67;34.00;99676.59;5207577;28;20059;-73
2022/06/10 14:08:00;;;;;;;4.60;1.45;;;;;;;25.75;35.11;99678.16;5215137;28;20457;-73
2022/06/10 14:10:51;;;;;;;6.40;1.80;;;;;;;25.29;34.23;99671.34;5207987;28;20741;-73
2022/06/10 14:13:56;;;;;;;6.50;1.30;;;;;;;25.74;34.90;99674.63;5206849;28;20087;-71